sensor_id;sensor_type;location;lat;lon;timestamp;P1;durP1;ratioP1;P2;durP2;ratioP2
38238;SDS011;24035;48.900;9.188;2023-10-19T00:00:56;11.07;;;4.63;;
38238;SDS011;24035;48.900;9.188;2023-10-19T00:03:23;7.40;;;3.60;;
38238;SDS011;24035;48.900;9.188;2023-10-19T00:05:50;7.07;;;4.13;;
38238;SDS011;24035;48.900;9.188;2023-10-19T00:08:16;7.32;;;4.03;;
38238;SDS011;24035;48.900;9.188;2023-10-19T00:10:43;7.95;;;4.47;;
38238;SDS011;24035;48.900;9.188;2023-10-19T00:13:10;7.47;;;3.75;;
38238;SDS011;24035;48.900;9.188;2023-10-19T00:15:40;10.27;;;4.25;;
38238;SDS011;24035;48.900;9.188;2023-10-19T00:18:17;7.50;;;3.72;;
38238;SDS011;24035;48.900;9.188;2023-10-19T00:20:44;8.40;;;4.75;;
38238;SDS011;24035;48.900;9.188;2023-10-19T00:23:11;8.50;;;4.47;;
38238;SDS011;24035;48.900;9.188;2023-10-19T00:25:39;7.03;;;4.15;;
38238;SDS011;24035;48.900;9.188;2023-10-19T00:28:09;9.43;;;3.92;;
38238;SDS011;24035;48.900;9.188;2023-10-19T00:30:38;8.93;;;4.85;;
38238;SDS011;24035;48.900;9.188;2023-10-19T00:33:07;7.88;;;3.92;;
38238;SDS011;24035;48.900;9.188;2023-10-19T00:35:50;8.10;;;4.47;;
38238;SDS011;24035;48.900;9.188;2023-10-19T00:38:22;12.95;;;4.82;;
38238;SDS011;24035;48.900;9.188;2023-10-19T00:40:52;9.63;;;4.97;;
38238;SDS011;24035;48.900;9.188;2023-10-19T00:43:30;8.73;;;3.70;;
38238;SDS011;24035;48.900;9.188;2023-10-19T00:46:09;11.50;;;3.75;;
38238;SDS011;24035;48.900;9.188;2023-10-19T00:48:45;6.38;;;3.35;;
38238;SDS011;24035;48.900;9.188;2023-10-19T00:51:20;6.68;;;3.53;;
38238;SDS011;24035;48.900;9.188;2023-10-19T00:54:14;6.50;;;3.75;;
38238;SDS011;24035;48.900;9.188;2023-10-19T00:56:49;8.82;;;3.65;;
38238;SDS011;24035;48.900;9.188;2023-10-19T00:59:21;7.93;;;3.80;;
38238;SDS011;24035;48.900;9.188;2023-10-19T01:01:50;9.57;;;3.92;;
38238;SDS011;24035;48.900;9.188;2023-10-19T01:04:20;9.05;;;4.20;;
38238;SDS011;24035;48.900;9.188;2023-10-19T01:06:51;10.95;;;4.70;;
38238;SDS011;24035;48.900;9.188;2023-10-19T01:09:29;7.50;;;4.18;;
38238;SDS011;24035;48.900;9.188;2023-10-19T01:12:02;7.72;;;4.40;;
38238;SDS011;24035;48.900;9.188;2023-10-19T01:17:43;7.45;;;3.38;;
38238;SDS011;24035;48.900;9.188;2023-10-19T01:20:15;8.27;;;3.95;;
38238;SDS011;24035;48.900;9.188;2023-10-19T01:25:42;6.28;;;3.70;;
38238;SDS011;24035;48.900;9.188;2023-10-19T01:28:30;8.35;;;3.72;;
38238;SDS011;24035;48.900;9.188;2023-10-19T01:31:06;8.43;;;3.50;;
38238;SDS011;24035;48.900;9.188;2023-10-19T01:33:32;8.05;;;3.55;;
38238;SDS011;24035;48.900;9.188;2023-10-19T01:36:01;6.97;;;3.45;;
38238;SDS011;24035;48.900;9.188;2023-10-19T01:38:37;8.02;;;3.47;;
38238;SDS011;24035;48.900;9.188;2023-10-19T01:41:04;6.20;;;3.13;;
38238;SDS011;24035;48.900;9.188;2023-10-19T01:43:39;5.97;;;3.05;;
38238;SDS011;24035;48.900;9.188;2023-10-19T01:46:10;6.82;;;3.70;;
38238;SDS011;24035;48.900;9.188;2023-10-19T01:48:41;8.32;;;4.20;;
38238;SDS011;24035;48.900;9.188;2023-10-19T01:51:08;6.53;;;3.40;;
38238;SDS011;24035;48.900;9.188;2023-10-19T01:53:40;9.80;;;3.53;;
38238;SDS011;24035;48.900;9.188;2023-10-19T01:56:10;7.00;;;3.65;;
38238;SDS011;24035;48.900;9.188;2023-10-19T01:58:41;9.45;;;3.90;;
38238;SDS011;24035;48.900;9.188;2023-10-19T02:01:09;7.72;;;4.00;;
38238;SDS011;24035;48.900;9.188;2023-10-19T02:03:38;7.50;;;3.38;;
38238;SDS011;24035;48.900;9.188;2023-10-19T02:06:07;5.75;;;3.10;;
38238;SDS011;24035;48.900;9.188;2023-10-19T02:08:49;7.07;;;2.83;;
38238;SDS011;24035;48.900;9.188;2023-10-19T02:11:26;6.47;;;3.05;;
38238;SDS011;24035;48.900;9.188;2023-10-19T02:13:54;6.03;;;3.17;;
38238;SDS011;24035;48.900;9.188;2023-10-19T02:18:54;6.45;;;3.42;;
38238;SDS011;24035;48.900;9.188;2023-10-19T02:21:21;5.97;;;3.53;;
38238;SDS011;24035;48.900;9.188;2023-10-19T02:23:57;6.22;;;3.35;;
38238;SDS011;24035;48.900;9.188;2023-10-19T02:26:23;9.18;;;4.18;;
38238;SDS011;24035;48.900;9.188;2023-10-19T02:28:52;5.28;;;3.22;;
38238;SDS011;24035;48.900;9.188;2023-10-19T02:31:19;8.02;;;3.65;;
38238;SDS011;24035;48.900;9.188;2023-10-19T02:33:50;7.93;;;3.70;;
38238;SDS011;24035;48.900;9.188;2023-10-19T02:36:29;6.60;;;3.17;;
38238;SDS011;24035;48.900;9.188;2023-10-19T02:39:00;8.05;;;3.65;;
38238;SDS011;24035;48.900;9.188;2023-10-19T02:41:33;5.80;;;3.00;;
38238;SDS011;24035;48.900;9.188;2023-10-19T02:44:13;6.75;;;3.22;;
38238;SDS011;24035;48.900;9.188;2023-10-19T02:46:53;6.13;;;3.22;;
38238;SDS011;24035;48.900;9.188;2023-10-19T02:49:31;5.43;;;2.88;;
38238;SDS011;24035;48.900;9.188;2023-10-19T02:51:57;7.82;;;3.88;;
38238;SDS011;24035;48.900;9.188;2023-10-19T02:54:28;7.05;;;3.83;;
38238;SDS011;24035;48.900;9.188;2023-10-19T02:56:57;9.15;;;3.58;;
38238;SDS011;24035;48.900;9.188;2023-10-19T02:59:24;7.80;;;3.58;;
38238;SDS011;24035;48.900;9.188;2023-10-19T03:01:54;6.90;;;3.65;;
38238;SDS011;24035;48.900;9.188;2023-10-19T03:04:36;6.75;;;3.63;;
38238;SDS011;24035;48.900;9.188;2023-10-19T03:07:03;7.72;;;3.72;;
38238;SDS011;24035;48.900;9.188;2023-10-19T03:09:29;7.78;;;3.97;;
38238;SDS011;24035;48.900;9.188;2023-10-19T03:11:56;7.25;;;4.32;;
38238;SDS011;24035;48.900;9.188;2023-10-19T03:14:28;7.35;;;3.47;;
38238;SDS011;24035;48.900;9.188;2023-10-19T03:16:54;6.35;;;3.17;;
38238;SDS011;24035;48.900;9.188;2023-10-19T03:19:21;7.90;;;3.58;;
38238;SDS011;24035;48.900;9.188;2023-10-19T03:21:47;6.18;;;3.83;;
38238;SDS011;24035;48.900;9.188;2023-10-19T03:24:16;7.00;;;3.42;;
38238;SDS011;24035;48.900;9.188;2023-10-19T03:27:01;6.57;;;3.55;;
38238;SDS011;24035;48.900;9.188;2023-10-19T03:29:34;6.97;;;3.38;;
38238;SDS011;24035;48.900;9.188;2023-10-19T03:32:04;7.97;;;3.78;;
38238;SDS011;24035;48.900;9.188;2023-10-19T03:34:31;8.70;;;3.97;;
38238;SDS011;24035;48.900;9.188;2023-10-19T03:36:57;6.50;;;3.20;;
38238;SDS011;24035;48.900;9.188;2023-10-19T03:39:31;6.10;;;3.40;;
38238;SDS011;24035;48.900;9.188;2023-10-19T03:42:06;6.80;;;3.25;;
38238;SDS011;24035;48.900;9.188;2023-10-19T03:44:33;8.57;;;3.90;;
38238;SDS011;24035;48.900;9.188;2023-10-19T03:47:18;7.72;;;3.55;;
38238;SDS011;24035;48.900;9.188;2023-10-19T03:49:44;6.15;;;3.67;;
38238;SDS011;24035;48.900;9.188;2023-10-19T03:52:12;6.35;;;3.30;;
38238;SDS011;24035;48.900;9.188;2023-10-19T03:54:38;6.05;;;3.35;;
38238;SDS011;24035;48.900;9.188;2023-10-19T03:57:04;5.90;;;3.20;;
38238;SDS011;24035;48.900;9.188;2023-10-19T03:59:55;6.70;;;3.17;;
38238;SDS011;24035;48.900;9.188;2023-10-19T04:02:24;7.80;;;3.15;;
38238;SDS011;24035;48.900;9.188;2023-10-19T04:04:52;5.15;;;2.78;;
38238;SDS011;24035;48.900;9.188;2023-10-19T04:07:18;6.20;;;2.80;;
38238;SDS011;24035;48.900;9.188;2023-10-19T04:12:34;7.30;;;3.05;;
38238;SDS011;24035;48.900;9.188;2023-10-19T04:15:03;6.25;;;2.65;;
38238;SDS011;24035;48.900;9.188;2023-10-19T04:17:46;4.75;;;2.42;;
38238;SDS011;24035;48.900;9.188;2023-10-19T04:20:13;6.20;;;2.58;;
38238;SDS011;24035;48.900;9.188;2023-10-19T04:22:45;5.82;;;2.80;;
38238;SDS011;24035;48.900;9.188;2023-10-19T04:25:16;4.63;;;2.40;;
38238;SDS011;24035;48.900;9.188;2023-10-19T04:27:46;5.38;;;2.63;;
38238;SDS011;24035;48.900;9.188;2023-10-19T04:30:14;6.90;;;2.45;;
38238;SDS011;24035;48.900;9.188;2023-10-19T04:32:44;5.07;;;2.30;;
38238;SDS011;24035;48.900;9.188;2023-10-19T04:35:14;5.10;;;2.90;;
38238;SDS011;24035;48.900;9.188;2023-10-19T04:37:46;8.30;;;2.47;;
38238;SDS011;24035;48.900;9.188;2023-10-19T04:40:17;6.40;;;3.08;;
38238;SDS011;24035;48.900;9.188;2023-10-19T04:42:44;7.65;;;3.00;;
38238;SDS011;24035;48.900;9.188;2023-10-19T04:45:11;5.93;;;3.03;;
38238;SDS011;24035;48.900;9.188;2023-10-19T04:47:37;7.57;;;2.63;;
38238;SDS011;24035;48.900;9.188;2023-10-19T04:50:03;6.00;;;2.72;;
38238;SDS011;24035;48.900;9.188;2023-10-19T04:52:30;9.25;;;2.85;;
38238;SDS011;24035;48.900;9.188;2023-10-19T04:54:56;5.03;;;2.28;;
38238;SDS011;24035;48.900;9.188;2023-10-19T04:57:22;7.55;;;3.05;;
38238;SDS011;24035;48.900;9.188;2023-10-19T04:59:48;7.55;;;3.13;;
38238;SDS011;24035;48.900;9.188;2023-10-19T05:02:14;5.15;;;2.25;;
38238;SDS011;24035;48.900;9.188;2023-10-19T05:04:39;5.93;;;2.40;;
38238;SDS011;24035;48.900;9.188;2023-10-19T05:07:09;6.68;;;2.50;;
38238;SDS011;24035;48.900;9.188;2023-10-19T05:09:37;6.47;;;2.58;;
38238;SDS011;24035;48.900;9.188;2023-10-19T05:12:06;7.28;;;2.60;;
38238;SDS011;24035;48.900;9.188;2023-10-19T05:14:35;6.10;;;3.08;;
38238;SDS011;24035;48.900;9.188;2023-10-19T05:17:01;6.75;;;2.95;;
38238;SDS011;24035;48.900;9.188;2023-10-19T05:19:30;7.30;;;3.00;;
38238;SDS011;24035;48.900;9.188;2023-10-19T05:22:00;5.95;;;2.33;;
38238;SDS011;24035;48.900;9.188;2023-10-19T05:24:27;7.63;;;3.05;;
38238;SDS011;24035;48.900;9.188;2023-10-19T05:26:54;6.68;;;2.55;;
38238;SDS011;24035;48.900;9.188;2023-10-19T05:29:20;5.03;;;2.30;;
38238;SDS011;24035;48.900;9.188;2023-10-19T05:31:47;5.72;;;2.53;;
38238;SDS011;24035;48.900;9.188;2023-10-19T05:34:12;5.35;;;2.67;;
38238;SDS011;24035;48.900;9.188;2023-10-19T05:36:38;5.32;;;2.53;;
38238;SDS011;24035;48.900;9.188;2023-10-19T05:39:10;6.15;;;2.92;;
38238;SDS011;24035;48.900;9.188;2023-10-19T05:41:35;6.47;;;2.65;;
38238;SDS011;24035;48.900;9.188;2023-10-19T05:44:03;7.63;;;2.42;;
38238;SDS011;24035;48.900;9.188;2023-10-19T05:46:28;5.18;;;2.88;;
38238;SDS011;24035;48.900;9.188;2023-10-19T05:48:56;4.75;;;2.10;;
38238;SDS011;24035;48.900;9.188;2023-10-19T05:51:22;5.85;;;2.83;;
38238;SDS011;24035;48.900;9.188;2023-10-19T05:53:48;6.07;;;2.22;;
38238;SDS011;24035;48.900;9.188;2023-10-19T05:56:16;5.15;;;2.67;;
38238;SDS011;24035;48.900;9.188;2023-10-19T05:58:45;4.20;;;2.22;;
38238;SDS011;24035;48.900;9.188;2023-10-19T06:01:13;5.03;;;2.33;;
38238;SDS011;24035;48.900;9.188;2023-10-19T06:03:39;6.00;;;2.60;;
38238;SDS011;24035;48.900;9.188;2023-10-19T06:06:05;5.25;;;2.75;;
38238;SDS011;24035;48.900;9.188;2023-10-19T06:08:31;4.43;;;2.20;;
38238;SDS011;24035;48.900;9.188;2023-10-19T06:10:57;7.35;;;2.45;;
38238;SDS011;24035;48.900;9.188;2023-10-19T06:13:23;5.53;;;2.70;;
38238;SDS011;24035;48.900;9.188;2023-10-19T06:15:49;5.78;;;2.55;;
38238;SDS011;24035;48.900;9.188;2023-10-19T06:18:15;9.27;;;2.63;;
38238;SDS011;24035;48.900;9.188;2023-10-19T06:20:44;9.13;;;3.00;;
38238;SDS011;24035;48.900;9.188;2023-10-19T06:23:10;4.97;;;2.13;;
38238;SDS011;24035;48.900;9.188;2023-10-19T06:25:37;5.15;;;2.42;;
38238;SDS011;24035;48.900;9.188;2023-10-19T06:28:03;7.50;;;2.65;;
38238;SDS011;24035;48.900;9.188;2023-10-19T06:30:30;4.82;;;2.15;;
38238;SDS011;24035;48.900;9.188;2023-10-19T06:32:59;4.60;;;2.30;;
38238;SDS011;24035;48.900;9.188;2023-10-19T06:35:29;4.50;;;2.22;;
38238;SDS011;24035;48.900;9.188;2023-10-19T06:38:01;5.18;;;2.70;;
38238;SDS011;24035;48.900;9.188;2023-10-19T06:40:29;5.80;;;2.65;;
38238;SDS011;24035;48.900;9.188;2023-10-19T06:42:56;4.18;;;2.40;;
38238;SDS011;24035;48.900;9.188;2023-10-19T06:45:23;4.38;;;2.15;;
38238;SDS011;24035;48.900;9.188;2023-10-19T06:47:50;5.82;;;3.03;;
38238;SDS011;24035;48.900;9.188;2023-10-19T06:50:18;4.60;;;2.30;;
38238;SDS011;24035;48.900;9.188;2023-10-19T06:52:45;6.78;;;2.55;;
38238;SDS011;24035;48.900;9.188;2023-10-19T06:55:12;6.47;;;3.17;;
38238;SDS011;24035;48.900;9.188;2023-10-19T06:57:43;5.18;;;2.92;;
38238;SDS011;24035;48.900;9.188;2023-10-19T07:00:10;7.32;;;2.92;;
38238;SDS011;24035;48.900;9.188;2023-10-19T07:02:43;9.05;;;3.30;;
38238;SDS011;24035;48.900;9.188;2023-10-19T07:05:10;5.38;;;2.97;;
38238;SDS011;24035;48.900;9.188;2023-10-19T07:07:42;5.72;;;3.72;;
38238;SDS011;24035;48.900;9.188;2023-10-19T07:10:08;5.20;;;2.60;;
38238;SDS011;24035;48.900;9.188;2023-10-19T07:12:37;4.40;;;2.30;;
38238;SDS011;24035;48.900;9.188;2023-10-19T07:15:07;6.72;;;2.90;;
38238;SDS011;24035;48.900;9.188;2023-10-19T07:17:35;5.88;;;2.70;;
38238;SDS011;24035;48.900;9.188;2023-10-19T07:20:04;4.10;;;1.92;;
38238;SDS011;24035;48.900;9.188;2023-10-19T07:22:35;6.72;;;2.38;;
38238;SDS011;24035;48.900;9.188;2023-10-19T07:25:05;6.40;;;2.28;;
38238;SDS011;24035;48.900;9.188;2023-10-19T07:27:31;5.97;;;2.60;;
38238;SDS011;24035;48.900;9.188;2023-10-19T07:30:00;4.47;;;2.03;;
38238;SDS011;24035;48.900;9.188;2023-10-19T07:32:26;4.78;;;2.10;;
38238;SDS011;24035;48.900;9.188;2023-10-19T07:34:53;9.70;;;2.22;;
38238;SDS011;24035;48.900;9.188;2023-10-19T07:37:20;8.43;;;2.70;;
38238;SDS011;24035;48.900;9.188;2023-10-19T07:39:47;4.95;;;2.35;;
38238;SDS011;24035;48.900;9.188;2023-10-19T07:42:14;5.93;;;2.33;;
38238;SDS011;24035;48.900;9.188;2023-10-19T07:44:40;6.60;;;2.55;;
38238;SDS011;24035;48.900;9.188;2023-10-19T07:47:06;9.05;;;3.63;;
38238;SDS011;24035;48.900;9.188;2023-10-19T07:49:35;8.07;;;4.10;;
38238;SDS011;24035;48.900;9.188;2023-10-19T07:52:05;7.35;;;3.22;;
38238;SDS011;24035;48.900;9.188;2023-10-19T07:54:36;4.55;;;2.60;;
38238;SDS011;24035;48.900;9.188;2023-10-19T07:57:03;6.28;;;2.83;;
38238;SDS011;24035;48.900;9.188;2023-10-19T07:59:34;6.63;;;2.88;;
38238;SDS011;24035;48.900;9.188;2023-10-19T08:02:01;7.00;;;3.00;;
38238;SDS011;24035;48.900;9.188;2023-10-19T08:04:30;4.22;;;2.30;;
38238;SDS011;24035;48.900;9.188;2023-10-19T08:06:56;8.05;;;2.67;;
38238;SDS011;24035;48.900;9.188;2023-10-19T08:09:22;6.57;;;2.70;;
38238;SDS011;24035;48.900;9.188;2023-10-19T08:11:50;5.75;;;2.55;;
38238;SDS011;24035;48.900;9.188;2023-10-19T08:14:22;4.72;;;2.17;;
38238;SDS011;24035;48.900;9.188;2023-10-19T08:16:49;6.60;;;1.95;;
38238;SDS011;24035;48.900;9.188;2023-10-19T08:19:16;4.60;;;2.00;;
38238;SDS011;24035;48.900;9.188;2023-10-19T08:21:41;9.13;;;3.25;;
38238;SDS011;24035;48.900;9.188;2023-10-19T08:24:07;4.40;;;2.50;;
38238;SDS011;24035;48.900;9.188;2023-10-19T08:26:41;5.95;;;3.03;;
38238;SDS011;24035;48.900;9.188;2023-10-19T08:29:08;5.15;;;2.22;;
38238;SDS011;24035;48.900;9.188;2023-10-19T08:31:41;5.00;;;2.20;;
38238;SDS011;24035;48.900;9.188;2023-10-19T08:34:07;5.18;;;2.35;;
38238;SDS011;24035;48.900;9.188;2023-10-19T08:36:40;4.45;;;2.20;;
38238;SDS011;24035;48.900;9.188;2023-10-19T08:39:09;4.93;;;2.30;;
38238;SDS011;24035;48.900;9.188;2023-10-19T08:41:37;4.88;;;2.20;;
38238;SDS011;24035;48.900;9.188;2023-10-19T08:44:05;4.43;;;2.25;;
38238;SDS011;24035;48.900;9.188;2023-10-19T08:46:41;5.03;;;2.67;;
38238;SDS011;24035;48.900;9.188;2023-10-19T08:49:12;5.45;;;2.08;;
38238;SDS011;24035;48.900;9.188;2023-10-19T08:51:43;4.30;;;2.28;;
38238;SDS011;24035;48.900;9.188;2023-10-19T08:54:13;4.45;;;1.95;;
38238;SDS011;24035;48.900;9.188;2023-10-19T08:56:41;5.75;;;1.85;;
38238;SDS011;24035;48.900;9.188;2023-10-19T08:59:11;4.20;;;1.60;;
38238;SDS011;24035;48.900;9.188;2023-10-19T09:01:37;4.28;;;1.70;;
38238;SDS011;24035;48.900;9.188;2023-10-19T09:04:03;3.53;;;1.70;;
38238;SDS011;24035;48.900;9.188;2023-10-19T09:06:31;3.60;;;1.70;;
38238;SDS011;24035;48.900;9.188;2023-10-19T09:09:09;4.30;;;1.80;;
38238;SDS011;24035;48.900;9.188;2023-10-19T09:11:42;4.20;;;1.52;;
38238;SDS011;24035;48.900;9.188;2023-10-19T09:14:09;3.83;;;1.40;;
38238;SDS011;24035;48.900;9.188;2023-10-19T09:16:38;6.13;;;1.63;;
38238;SDS011;24035;48.900;9.188;2023-10-19T09:19:20;3.70;;;1.88;;
38238;SDS011;24035;48.900;9.188;2023-10-19T09:21:45;3.38;;;1.15;;
38238;SDS011;24035;48.900;9.188;2023-10-19T09:24:11;4.38;;;1.83;;
38238;SDS011;24035;48.900;9.188;2023-10-19T09:26:37;3.97;;;1.40;;
38238;SDS011;24035;48.900;9.188;2023-10-19T09:29:02;4.82;;;1.58;;
38238;SDS011;24035;48.900;9.188;2023-10-19T09:31:28;3.00;;;1.17;;
38238;SDS011;24035;48.900;9.188;2023-10-19T09:33:55;3.50;;;1.50;;
38238;SDS011;24035;48.900;9.188;2023-10-19T09:36:23;3.53;;;1.52;;
38238;SDS011;24035;48.900;9.188;2023-10-19T09:38:52;4.93;;;1.75;;
38238;SDS011;24035;48.900;9.188;2023-10-19T09:41:18;4.32;;;2.05;;
38238;SDS011;24035;48.900;9.188;2023-10-19T09:43:47;4.10;;;1.67;;
38238;SDS011;24035;48.900;9.188;2023-10-19T09:46:20;3.33;;;1.30;;
38238;SDS011;24035;48.900;9.188;2023-10-19T09:48:51;5.38;;;1.48;;
38238;SDS011;24035;48.900;9.188;2023-10-19T09:51:18;4.97;;;1.58;;
38238;SDS011;24035;48.900;9.188;2023-10-19T09:53:48;4.45;;;1.60;;
38238;SDS011;24035;48.900;9.188;2023-10-19T09:56:20;3.72;;;1.33;;
38238;SDS011;24035;48.900;9.188;2023-10-19T09:58:53;3.83;;;1.48;;
38238;SDS011;24035;48.900;9.188;2023-10-19T10:02:02;5.55;;;1.52;;
38238;SDS011;24035;48.900;9.188;2023-10-19T10:04:33;3.35;;;1.33;;
38238;SDS011;24035;48.900;9.188;2023-10-19T10:07:04;3.30;;;1.30;;
38238;SDS011;24035;48.900;9.188;2023-10-19T10:09:31;2.95;;;1.30;;
38238;SDS011;24035;48.900;9.188;2023-10-19T10:12:19;3.10;;;1.52;;
38238;SDS011;24035;48.900;9.188;2023-10-19T10:14:55;2.88;;;1.15;;
38238;SDS011;24035;48.900;9.188;2023-10-19T10:17:25;5.88;;;1.80;;
38238;SDS011;24035;48.900;9.188;2023-10-19T10:19:54;2.92;;;1.48;;
38238;SDS011;24035;48.900;9.188;2023-10-19T10:22:42;4.32;;;1.17;;
38238;SDS011;24035;48.900;9.188;2023-10-19T10:25:24;3.35;;;1.65;;
38238;SDS011;24035;48.900;9.188;2023-10-19T10:27:53;4.70;;;1.90;;
38238;SDS011;24035;48.900;9.188;2023-10-19T10:30:20;3.92;;;1.60;;
38238;SDS011;24035;48.900;9.188;2023-10-19T10:32:47;3.88;;;1.73;;
38238;SDS011;24035;48.900;9.188;2023-10-19T10:38:06;3.10;;;1.60;;
38238;SDS011;24035;48.900;9.188;2023-10-19T10:40:42;3.55;;;1.40;;
38238;SDS011;24035;48.900;9.188;2023-10-19T10:43:15;3.95;;;1.30;;
38238;SDS011;24035;48.900;9.188;2023-10-19T10:45:41;2.83;;;1.17;;
38238;SDS011;24035;48.900;9.188;2023-10-19T10:48:15;3.05;;;1.20;;
38238;SDS011;24035;48.900;9.188;2023-10-19T10:50:42;4.97;;;1.75;;
38238;SDS011;24035;48.900;9.188;2023-10-19T10:53:10;3.33;;;1.40;;
38238;SDS011;24035;48.900;9.188;2023-10-19T10:55:36;2.67;;;1.15;;
38238;SDS011;24035;48.900;9.188;2023-10-19T10:58:03;3.63;;;1.50;;
38238;SDS011;24035;48.900;9.188;2023-10-19T11:00:30;3.38;;;1.33;;
38238;SDS011;24035;48.900;9.188;2023-10-19T11:03:00;3.40;;;1.23;;
38238;SDS011;24035;48.900;9.188;2023-10-19T11:05:29;4.13;;;1.60;;
38238;SDS011;24035;48.900;9.188;2023-10-19T11:08:03;3.65;;;1.10;;
38238;SDS011;24035;48.900;9.188;2023-10-19T11:10:35;2.53;;;1.15;;
38238;SDS011;24035;48.900;9.188;2023-10-19T11:13:12;5.10;;;1.15;;
38238;SDS011;24035;48.900;9.188;2023-10-19T11:15:50;5.90;;;1.00;;
38238;SDS011;24035;48.900;9.188;2023-10-19T11:21:08;6.88;;;1.90;;
38238;SDS011;24035;48.900;9.188;2023-10-19T11:26:01;3.80;;;1.65;;
38238;SDS011;24035;48.900;9.188;2023-10-19T11:28:27;4.47;;;1.52;;
38238;SDS011;24035;48.900;9.188;2023-10-19T11:31:10;4.68;;;1.67;;
38238;SDS011;24035;48.900;9.188;2023-10-19T11:33:47;3.95;;;1.77;;
38238;SDS011;24035;48.900;9.188;2023-10-19T11:36:14;9.18;;;1.88;;
38238;SDS011;24035;48.900;9.188;2023-10-19T11:38:42;4.43;;;1.83;;
38238;SDS011;24035;48.900;9.188;2023-10-19T11:41:10;6.90;;;1.70;;
38238;SDS011;24035;48.900;9.188;2023-10-19T11:43:38;4.00;;;1.98;;
38238;SDS011;24035;48.900;9.188;2023-10-19T11:46:09;5.63;;;1.60;;
38238;SDS011;24035;48.900;9.188;2023-10-19T11:48:37;6.35;;;2.08;;
38238;SDS011;24035;48.900;9.188;2023-10-19T11:51:05;4.10;;;1.88;;
38238;SDS011;24035;48.900;9.188;2023-10-19T11:53:32;3.95;;;1.70;;
38238;SDS011;24035;48.900;9.188;2023-10-19T11:56:05;5.25;;;2.33;;
38238;SDS011;24035;48.900;9.188;2023-10-19T12:01:00;4.50;;;1.80;;
38238;SDS011;24035;48.900;9.188;2023-10-19T12:03:38;4.03;;;1.60;;
38238;SDS011;24035;48.900;9.188;2023-10-19T12:06:06;5.38;;;1.60;;
38238;SDS011;24035;48.900;9.188;2023-10-19T12:08:33;6.03;;;2.15;;
38238;SDS011;24035;48.900;9.188;2023-10-19T12:10:59;3.33;;;1.75;;
38238;SDS011;24035;48.900;9.188;2023-10-19T12:13:27;5.63;;;1.90;;
38238;SDS011;24035;48.900;9.188;2023-10-19T12:15:53;6.38;;;2.40;;
38238;SDS011;24035;48.900;9.188;2023-10-19T12:18:23;4.10;;;2.05;;
38238;SDS011;24035;48.900;9.188;2023-10-19T12:20:51;6.68;;;3.17;;
38238;SDS011;24035;48.900;9.188;2023-10-19T12:23:21;6.57;;;3.10;;
38238;SDS011;24035;48.900;9.188;2023-10-19T12:25:48;6.18;;;2.67;;
38238;SDS011;24035;48.900;9.188;2023-10-19T12:28:14;8.52;;;2.65;;
38238;SDS011;24035;48.900;9.188;2023-10-19T12:30:41;4.78;;;2.67;;
38238;SDS011;24035;48.900;9.188;2023-10-19T12:33:07;5.20;;;2.35;;
38238;SDS011;24035;48.900;9.188;2023-10-19T12:35:42;6.43;;;2.87;;
38238;SDS011;24035;48.900;9.188;2023-10-19T12:38:19;5.90;;;2.35;;
38238;SDS011;24035;48.900;9.188;2023-10-19T12:40:48;5.43;;;3.45;;
38238;SDS011;24035;48.900;9.188;2023-10-19T12:43:15;6.80;;;3.47;;
38238;SDS011;24035;48.900;9.188;2023-10-19T12:45:44;5.25;;;2.15;;
38238;SDS011;24035;48.900;9.188;2023-10-19T12:48:15;7.63;;;2.67;;
38238;SDS011;24035;48.900;9.188;2023-10-19T12:50:42;5.03;;;2.10;;
38238;SDS011;24035;48.900;9.188;2023-10-19T12:53:08;4.00;;;1.92;;
38238;SDS011;24035;48.900;9.188;2023-10-19T12:55:35;3.83;;;1.95;;
38238;SDS011;24035;48.900;9.188;2023-10-19T12:58:03;5.45;;;2.15;;
38238;SDS011;24035;48.900;9.188;2023-10-19T13:00:33;5.97;;;1.90;;
38238;SDS011;24035;48.900;9.188;2023-10-19T13:03:07;3.92;;;1.58;;
38238;SDS011;24035;48.900;9.188;2023-10-19T13:05:34;3.28;;;1.60;;
38238;SDS011;24035;48.900;9.188;2023-10-19T13:08:05;5.28;;;1.92;;
38238;SDS011;24035;48.900;9.188;2023-10-19T13:10:32;10.57;;;2.50;;
38238;SDS011;24035;48.900;9.188;2023-10-19T13:13:00;3.35;;;1.60;;
38238;SDS011;24035;48.900;9.188;2023-10-19T13:15:29;5.55;;;2.65;;
38238;SDS011;24035;48.900;9.188;2023-10-19T13:18:03;3.60;;;1.80;;
38238;SDS011;24035;48.900;9.188;2023-10-19T13:20:31;3.20;;;1.40;;
38238;SDS011;24035;48.900;9.188;2023-10-19T13:23:01;2.97;;;1.20;;
38238;SDS011;24035;48.900;9.188;2023-10-19T13:25:36;4.20;;;1.73;;
38238;SDS011;24035;48.900;9.188;2023-10-19T13:28:15;3.78;;;1.30;;
38238;SDS011;24035;48.900;9.188;2023-10-19T13:30:45;3.25;;;1.40;;
38238;SDS011;24035;48.900;9.188;2023-10-19T13:33:15;4.15;;;1.77;;
38238;SDS011;24035;48.900;9.188;2023-10-19T13:35:43;3.63;;;1.40;;
38238;SDS011;24035;48.900;9.188;2023-10-19T13:38:10;2.85;;;1.25;;
38238;SDS011;24035;48.900;9.188;2023-10-19T13:40:39;3.42;;;1.17;;
38238;SDS011;24035;48.900;9.188;2023-10-19T13:43:06;4.57;;;1.17;;
38238;SDS011;24035;48.900;9.188;2023-10-19T13:45:33;2.80;;;1.17;;
38238;SDS011;24035;48.900;9.188;2023-10-19T13:48:03;4.10;;;1.42;;
38238;SDS011;24035;48.900;9.188;2023-10-19T13:50:30;3.20;;;1.27;;
38238;SDS011;24035;48.900;9.188;2023-10-19T13:52:57;4.60;;;1.38;;
38238;SDS011;24035;48.900;9.188;2023-10-19T13:55:24;5.65;;;1.00;;
38238;SDS011;24035;48.900;9.188;2023-10-19T13:57:50;3.13;;;1.35;;
38238;SDS011;24035;48.900;9.188;2023-10-19T14:00:17;2.55;;;1.15;;
38238;SDS011;24035;48.900;9.188;2023-10-19T14:03:03;4.80;;;1.90;;
38238;SDS011;24035;48.900;9.188;2023-10-19T14:05:30;2.35;;;1.10;;
38238;SDS011;24035;48.900;9.188;2023-10-19T14:08:06;5.72;;;1.70;;
38238;SDS011;24035;48.900;9.188;2023-10-19T14:10:32;4.40;;;1.33;;
38238;SDS011;24035;48.900;9.188;2023-10-19T14:12:59;4.45;;;1.52;;
38238;SDS011;24035;48.900;9.188;2023-10-19T14:15:25;3.90;;;1.42;;
38238;SDS011;24035;48.900;9.188;2023-10-19T14:17:52;2.58;;;0.95;;
38238;SDS011;24035;48.900;9.188;2023-10-19T14:20:21;3.75;;;1.23;;
38238;SDS011;24035;48.900;9.188;2023-10-19T14:22:50;6.22;;;1.67;;
38238;SDS011;24035;48.900;9.188;2023-10-19T14:27:48;2.72;;;1.40;;
38238;SDS011;24035;48.900;9.188;2023-10-19T14:30:16;4.28;;;1.67;;
38238;SDS011;24035;48.900;9.188;2023-10-19T14:32:45;4.32;;;1.73;;
38238;SDS011;24035;48.900;9.188;2023-10-19T14:35:14;3.30;;;1.40;;
38238;SDS011;24035;48.900;9.188;2023-10-19T14:37:42;4.22;;;1.15;;
38238;SDS011;24035;48.900;9.188;2023-10-19T14:40:13;4.03;;;1.23;;
38238;SDS011;24035;48.900;9.188;2023-10-19T14:42:48;3.78;;;1.60;;
38238;SDS011;24035;48.900;9.188;2023-10-19T14:45:16;4.22;;;1.65;;
38238;SDS011;24035;48.900;9.188;2023-10-19T14:47:49;4.32;;;1.75;;
38238;SDS011;24035;48.900;9.188;2023-10-19T14:50:19;5.10;;;1.88;;
38238;SDS011;24035;48.900;9.188;2023-10-19T14:52:49;3.45;;;1.63;;
38238;SDS011;24035;48.900;9.188;2023-10-19T14:55:20;4.63;;;1.90;;
38238;SDS011;24035;48.900;9.188;2023-10-19T14:57:46;5.63;;;1.92;;
38238;SDS011;24035;48.900;9.188;2023-10-19T15:00:20;4.22;;;2.00;;
38238;SDS011;24035;48.900;9.188;2023-10-19T15:02:50;3.53;;;1.90;;
38238;SDS011;24035;48.900;9.188;2023-10-19T15:05:17;3.63;;;1.60;;
38238;SDS011;24035;48.900;9.188;2023-10-19T15:07:46;4.70;;;1.60;;
38238;SDS011;24035;48.900;9.188;2023-10-19T15:12:48;3.80;;;1.67;;
38238;SDS011;24035;48.900;9.188;2023-10-19T15:15:15;5.63;;;1.95;;
38238;SDS011;24035;48.900;9.188;2023-10-19T15:17:42;5.85;;;1.80;;
38238;SDS011;24035;48.900;9.188;2023-10-19T15:20:14;4.90;;;1.70;;
38238;SDS011;24035;48.900;9.188;2023-10-19T15:22:41;4.03;;;1.58;;
38238;SDS011;24035;48.900;9.188;2023-10-19T15:25:10;5.60;;;1.80;;
38238;SDS011;24035;48.900;9.188;2023-10-19T15:27:48;2.70;;;1.25;;
38238;SDS011;24035;48.900;9.188;2023-10-19T15:30:14;4.63;;;1.98;;